Time;durP1;ratioP1;P1;durP2;ratioP2;P2;SDS_P1;SDS_P2;PMS_P1;PMS_P2;Temp;Humidity;BMP_temperature;BMP_pressure;BME280_temperature;BME280_humidity;BME280_pressure;Samples;Min_cycle;Max_cycle;Signal;HPM_P1;HPM_P2
2022/06/05 00:00:31;;;;;;;;;;;;;;;19.81;76.53;96386.56;5030692;28;19921;-77
2022/06/05 00:03:09;;;;;;;;;;;;;;;19.77;76.43;96373.88;5031425;28;19932;-77
2022/06/05 00:05:43;;;;;;;;;;;;;;;19.77;76.39;96373.88;5031344;28;19993;-77
2022/06/05 00:08:13;;;;;;;;;;;;;;;19.79;76.43;96371.53;5030703;28;20017;-78
2022/06/05 00:10:43;;;;;;;;;;;;;;;19.78;75.90;96370.75;5026580;28;20003;-76
2022/06/05 00:13:13;;;;;;;;;;;;;;;19.76;76.43;96377.81;5030309;28;19925;-78
2022/06/05 00:15:39;;;;;;;;;;;;;;;19.67;76.39;96374.53;5030274;28;19924;-77
2022/06/05 00:18:07;;;;;;;;;;;;;;;19.66;76.39;96367.44;5019695;28;19928;-78
2022/06/05 00:20:34;;;;;;;;;;;;;;;19.64;76.69;96358.72;5029217;28;19921;-78
2022/06/05 00:23:00;;;;;;;;;;;;;;;19.61;76.85;96371.31;5033738;28;19928;-78
2022/06/05 00:25:32;;;;;;;;;;;;;;;19.61;76.90;96360.25;5030886;28;19932;-78
2022/06/05 00:28:02;;;;;;;;;;;;;;;19.61;77.01;96362.22;5031234;28;19928;-77
2022/06/05 00:30:34;;;;;;;;;;;;;;;19.60;77.04;96357.88;5030537;28;19921;-78
2022/06/05 00:33:03;;;;;;;;;;;;;;;19.58;77.32;96349.16;5031118;28;20292;-77
2022/06/05 00:35:34;;;;;;;;;;;;;;;19.51;77.09;96350.63;5030713;28;19928;-77
2022/06/05 00:38:03;;;;;;;;;;;;;;;19.49;77.20;96355.75;5031198;28;19921;-76
2022/06/05 00:40:35;;;;;;;;;;;;;;;19.46;76.98;96350.19;5013785;28;19952;-77
2022/06/05 00:43:02;;;;;;;;;;;;;;;19.41;77.16;96351.31;5012787;28;20281;-77
2022/06/05 00:45:30;;;;;;;;;;;;;;;19.43;77.41;96348.19;5018304;28;19922;-77
2022/06/05 00:47:56;;;;;;;;;;;;;;;19.43;77.67;96353.72;5019976;28;19921;-78
2022/06/05 00:50:24;;;;;;;;;;;;;;;19.45;77.67;96357.66;5012546;28;19936;-77
2022/06/05 00:52:55;;;;;;;;;;;;;;;19.45;77.72;96354.13;5011665;28;19922;-78
2022/06/05 00:55:22;;;;;;;;;;;;;;;19.43;77.34;96356.47;5010664;28;19930;-78
2022/06/05 00:57:49;;;;;;;;;;;;;;;19.42;77.09;96363.97;5011125;28;19970;-77
2022/06/05 01:00:18;;;;;;;;;;;;;;;19.38;77.18;96357.59;5010170;28;20262;-77
2022/06/05 01:02:46;;;;;;;;;;;;;;;19.36;77.55;96354.41;4999835;28;19922;-78
2022/06/05 01:05:14;;;;;;;;;;;;;;;19.26;77.56;96344.00;5009814;28;19921;-77
2022/06/05 01:07:41;;;;;;;;;;;;;;;19.24;77.59;96346.34;5011821;28;19929;-77
2022/06/05 01:10:11;;;;;;;;;;;;;;;19.20;77.72;96351.03;5014157;28;19929;-77
2022/06/05 01:12:43;;;;;;;;;;;;;;;19.10;78.12;96346.16;5014469;28;19928;-77
2022/06/05 01:15:14;;;;;;;;;;;;;;;19.10;78.03;96351.69;5024650;28;19991;-78
2022/06/05 01:17:45;;;;;;;;;;;;;;;19.09;78.27;96353.66;5024382;28;20565;-77
2022/06/05 01:20:14;;;;;;;;;;;;;;;19.11;78.18;96353.28;5025199;28;19921;-77
2022/06/05 01:22:58;;;;;;;;;;;;;;;19.14;78.65;96347.00;5023633;28;19921;-77
2022/06/05 01:25:44;;;;;;;;;;;;;;;19.17;78.91;96340.75;5010981;28;20332;-77
2022/06/05 01:28:12;;;;;;;;;;;;;;;19.14;78.68;96333.22;5010427;28;19933;-78
2022/06/05 01:30:49;;;;;;;;;;;;;;;19.13;78.85;96329.66;5011867;28;20280;-77
2022/06/05 01:33:17;;;;;;;;;;;;;;;19.15;78.74;96337.56;5013802;28;19921;-78
2022/06/05 01:35:47;;;;;;;;;;;;;;;19.13;78.72;96328.88;5014249;28;19925;-78
2022/06/05 01:38:16;;;;;;;;;;;;;;;19.13;78.84;96320.59;5010545;28;19978;-78
2022/06/05 01:40:46;;;;;;;;;;;;;;;19.10;78.82;96316.59;5013615;28;20028;-77
2022/06/05 01:43:15;;;;;;;;;;;;;;;19.03;78.55;96319.25;5013283;28;19928;-78
2022/06/05 01:45:44;;;;;;;;;;;;;;;19.04;78.28;96316.13;5013495;28;19921;-78
2022/06/05 01:48:13;;;;;;;;;;;;;;;19.02;78.30;96310.19;5013213;28;19957;-78
2022/06/05 01:50:41;;;;;;;;;;;;;;;19.00;78.49;96309.78;5015847;28;19921;-77
2022/06/05 01:53:10;;;;;;;;;;;;;;;18.94;78.10;96304.94;5013433;28;19922;-78
2022/06/05 01:55:39;;;;;;;;;;;;;;;18.89;78.49;96302.50;5013431;28;19994;-77
2022/06/05 01:58:08;;;;;;;;;;;;;;;18.88;78.60;96296.19;5013222;28;19921;-78
2022/06/05 02:00:35;;;;;;;;;;;;;;;18.83;78.74;96293.75;5013488;28;19921;-77
2022/06/05 02:03:04;;;;;;;;;;;;;;;18.84;78.88;96289.03;5013610;28;19928;-78
2022/06/05 02:05:34;;;;;;;;;;;;;;;18.86;78.85;96298.53;5012786;28;19941;-77
2022/06/05 02:08:03;;;;;;;;;;;;;;;18.89;78.64;96292.25;5010116;28;19925;-77
2022/06/05 02:10:40;;;;;;;;;;;;;;;18.91;78.72;96295.47;5013150;28;19922;-77
2022/06/05 02:13:07;;;;;;;;;;;;;;;18.77;78.86;96282.25;5008183;28;20380;-78
2022/06/05 02:15:34;;;;;;;;;;;;;;;18.68;78.61;96290.00;5012708;28;19944;-77
2022/06/05 02:18:01;;;;;;;;;;;;;;;18.67;78.84;96302.16;5013092;28;19925;-78
2022/06/05 02:20:28;;;;;;;;;;;;;;;18.68;78.98;96297.47;5012702;28;19928;-77
2022/06/05 02:22:55;;;;;;;;;;;;;;;18.67;79.04;96293.09;5012705;28;19928;-77
2022/06/05 02:25:24;;;;;;;;;;;;;;;18.63;79.10;96284.78;5012043;28;19929;-77
2022/06/05 02:27:50;;;;;;;;;;;;;;;18.64;79.16;96282.84;5012796;28;20630;-78
2022/06/05 02:30:18;;;;;;;;;;;;;;;18.65;79.13;96276.16;5012078;28;19982;-77
2022/06/05 02:32:58;;;;;;;;;;;;;;;18.62;79.08;96271.38;5012340;28;19921;-78
2022/06/05 02:35:30;;;;;;;;;;;;;;;18.58;78.92;96273.25;5012112;28;20004;-77
2022/06/05 02:38:06;;;;;;;;;;;;;;;18.52;79.15;96267.28;5012314;28;20046;-77
2022/06/05 02:40:38;;;;;;;;;;;;;;;18.43;79.39;96269.53;5012392;28;19928;-78
2022/06/05 02:43:07;;;;;;;;;;;;;;;18.37;79.63;96258.00;5007982;28;19929;-77
2022/06/05 02:45:41;;;;;;;;;;;;;;;18.35;79.77;96260.34;5012042;28;20284;-77
2022/06/05 02:48:11;;;;;;;;;;;;;;;18.30;79.82;96249.63;5011805;28;19929;-78
2022/06/05 02:50:43;;;;;;;;;;;;;;;18.23;80.01;96250.31;5012223;28;20005;-77
2022/06/05 02:53:12;;;;;;;;;;;;;;;18.27;79.83;96244.88;5011909;28;19922;-77
2022/06/05 02:55:38;;;;;;;;;;;;;;;18.33;79.77;96248.09;5012014;28;19994;-78
2022/06/05 02:58:05;;;;;;;;;;;;;;;18.22;79.77;96245.19;5011281;28;19925;-78
2022/06/05 03:00:32;;;;;;;;;;;;;;;18.14;79.99;96232.44;5012222;28;20284;-78
2022/06/05 03:05:44;;;;;;;;;;;;;;;18.05;80.30;96210.66;5011669;28;19944;-78
2022/06/05 03:08:12;;;;;;;;;;;;;;;18.05;80.29;96215.38;5011328;28;19925;-77
2022/06/05 03:10:38;;;;;;;;;;;;;;;17.98;80.37;96205.81;5011872;28;19922;-78
2022/06/05 03:13:05;;;;;;;;;;;;;;;17.98;80.51;96205.81;5007732;28;19925;-77
2022/06/05 03:15:32;;;;;;;;;;;;;;;18.00;80.45;96203.47;5011724;28;20000;-79
2022/06/05 03:18:00;;;;;;;;;;;;;;;18.03;80.31;96201.19;5011794;28;19925;-78
2022/06/05 03:20:26;;;;;;;;;;;;;;;18.04;80.31;96195.28;5014175;28;20368;-78
2022/06/05 03:22:53;;;;;;;;;;;;;;;17.99;80.34;96195.59;5011939;28;20004;-78
2022/06/05 03:25:20;;;;;;;;;;;;;;;17.87;80.81;96188.34;5011089;28;20005;-78
2022/06/05 03:27:47;;;;;;;;;;;;;;;17.79;81.25;96202.34;5011728;28;20001;-78
2022/06/05 03:30:14;;;;;;;;;;;;;;;17.73;81.78;96191.66;5011177;28;19994;-78
2022/06/05 03:32:40;;;;;;;;;;;;;;;17.74;81.97;96189.69;5011832;28;20496;-78
2022/06/05 03:35:09;;;;;;;;;;;;;;;17.73;81.85;96193.59;5011137;28;20001;-78
2022/06/05 03:37:36;;;;;;;;;;;;;;;17.76;82.03;96186.59;5011448;28;19993;-78
2022/06/05 03:40:02;;;;;;;;;;;;;;;17.71;81.93;96193.16;5011008;28;20004;-77
2022/06/05 03:42:28;;;;;;;;;;;;;;;17.68;81.87;96185.63;5010584;28;20352;-77
2022/06/05 03:44:54;;;;;;;;;;;;;;;17.71;81.84;96179.38;5008349;28;20004;-78
2022/06/05 03:47:21;;;;;;;;;;;;;;;17.67;82.10;96186.78;5010743;28;19997;-78
2022/06/05 03:49:47;;;;;;;;;;;;;;;17.68;82.18;96180.13;5011304;28;20380;-78
2022/06/05 03:52:15;;;;;;;;;;;;;;;17.63;82.07;96185.94;5010692;28;20460;-77
2022/06/05 03:54:41;;;;;;;;;;;;;;;17.65;82.31;96181.66;5010664;28;20448;-78
2022/06/05 03:57:08;;;;;;;;;;;;;;;17.61;82.29;96177.25;5010754;28;19994;-79
2022/06/05 03:59:35;;;;;;;;;;;;;;;17.62;82.41;96165.06;5010858;28;19990;-77
2022/06/05 04:02:01;;;;;;;;;;;;;;;17.55;82.72;96164.97;5011034;28;20001;-78
2022/06/05 04:04:28;;;;;;;;;;;;;;;17.58;82.53;96161.47;5010510;28;20001;-76
2022/06/05 04:06:54;;;;;;;;;;;;;;;17.52;82.52;96160.19;5011106;28;19994;-78
2022/06/05 04:09:22;;;;;;;;;;;;;;;17.58;82.46;96166.97;5010240;28;20004;-78
2022/06/05 04:11:48;;;;;;;;;;;;;;;17.59;82.26;96171.31;5010894;28;20000;-77
2022/06/05 04:14:16;;;;;;;;;;;;;;;17.63;82.30;96172.16;5005642;28;20367;-77
2022/06/05 04:16:43;;;;;;;;;;;;;;;17.57;82.34;96174.44;5010847;28;19993;-77
2022/06/05 04:19:09;;;;;;;;;;;;;;;17.65;82.45;96169.84;5010091;28;20005;-78
2022/06/05 04:21:36;;;;;;;;;;;;;;;17.71;82.14;96162.88;5011042;28;20001;-78
2022/06/05 04:24:03;;;;;;;;;;;;;;;17.68;82.23;96160.84;5010475;28;19997;-78
2022/06/05 04:26:32;;;;;;;;;;;;;;;17.68;81.97;96163.59;5010859;28;20000;-78
2022/06/05 04:28:59;;;;;;;;;;;;;;;17.61;81.82;96153.25;5010706;28;20005;-80
2022/06/05 04:31:26;;;;;;;;;;;;;;;17.61;81.74;96161.53;5010114;28;20084;-78
2022/06/05 04:33:54;;;;;;;;;;;;;;;17.71;81.69;96160.13;5010496;28;19929;-77
2022/06/05 04:36:20;;;;;;;;;;;;;;;17.74;81.23;96157.44;5010099;28;20504;-78
2022/06/05 04:38:47;;;;;;;;;;;;;;;17.81;80.53;96150.47;5010196;28;20009;-78
2022/06/05 04:41:14;;;;;;;;;;;;;;;17.75;80.39;96147.22;5010228;28;19957;-78
2022/06/05 04:43:42;;;;;;;;;;;;;;;17.70;80.45;96150.25;5006879;28;19933;-76
2022/06/05 04:46:08;;;;;;;;;;;;;;;17.74;80.71;96142.88;5009870;28;19929;-77
2022/06/05 04:48:35;;;;;;;;;;;;;;;17.75;80.05;96144.47;5012532;28;19948;-78
2022/06/05 04:51:03;;;;;;;;;;;;;;;17.82;80.06;96152.84;5010522;28;19932;-78
2022/06/05 04:53:29;;;;;;;;;;;;;;;17.85;80.37;96152.09;5010189;28;19932;-78
2022/06/05 04:55:55;;;;;;;;;;;;;;;17.93;80.32;96148.28;5010056;28;19929;-78
2022/06/05 04:58:22;;;;;;;;;;;;;;;17.89;79.87;96141.94;5009960;28;19990;-77
2022/06/05 05:00:50;;;;;;;;;;;;;;;17.98;79.66;96147.97;5010519;28;20001;-77
2022/06/05 05:03:16;;;;;;;;;;;;;;;18.06;79.44;96145.31;5009713;28;19925;-77
2022/06/05 05:05:42;;;;;;;;;;;;;;;18.03;78.74;96148.81;5012676;28;19933;-78
2022/06/05 05:08:09;;;;;;;;;;;;;;;17.96;79.46;96147.56;5013970;28;19932;-78
2022/06/05 05:10:35;;;;;;;;;;;;;;;18.00;79.58;96148.38;5014330;28;20008;-77
2022/06/05 05:13:02;;;;;;;;;;;;;;;17.96;79.27;96130.25;5013525;28;20017;-78
2022/06/05 05:15:28;;;;;;;;;;;;;;;17.99;79.66;96122.00;5013791;28;19932;-78
2022/06/05 05:17:57;;;;;;;;;;;;;;;17.98;79.22;96114.91;5013976;28;20741;-78
2022/06/05 05:20:24;;;;;;;;;;;;;;;18.08;79.58;96107.97;5013091;28;20000;-78
2022/06/05 05:22:50;;;;;;;;;;;;;;;18.11;79.28;96104.44;5013762;28;20005;-78
2022/06/05 05:25:17;;;;;;;;;;;;;;;18.11;79.53;96109.97;5013086;28;20372;-77
2022/06/05 05:27:43;;;;;;;;;;;;;;;18.14;79.39;96114.75;5013532;28;20429;-77
2022/06/05 05:30:10;;;;;;;;;;;;;;;18.22;79.58;96115.66;5013153;28;19925;-78
2022/06/05 05:32:37;;;;;;;;;;;;;;;18.29;79.14;96103.91;5013556;28;20396;-77
2022/06/05 05:35:05;;;;;;;;;;;;;;;18.32;78.94;96103.94;5012922;28;19932;-78
2022/06/05 05:37:32;;;;;;;;;;;;;;;18.40;78.65;96111.16;5012749;28;19936;-78
2022/06/05 05:42:42;;;;;;;;;;;;;;;18.56;78.46;96107.41;5009491;28;19988;-78
2022/06/05 05:45:09;;;;;;;;;;;;;;;18.62;78.06;96103.13;5008874;28;19925;-77
2022/06/05 05:47:36;;;;;;;;;;;;;;;18.63;77.36;96101.97;5009825;28;19934;-77
2022/06/05 05:50:04;;;;;;;;;;;;;;;18.66;77.91;96090.19;5019599;28;20741;-77
2022/06/05 05:52:32;;;;;;;;;;;;;;;18.63;77.87;96090.94;5029418;28;19925;-77
2022/06/05 05:54:59;;;;;;;;;;;;;;;18.73;77.76;96079.25;5029141;28;19936;-78
2022/06/05 05:57:26;;;;;;;;;;;;;;;18.80;77.57;96089.59;5028772;28;20080;-78
2022/06/05 05:59:52;;;;;;;;;;;;;;;18.91;77.33;96082.22;5029091;28;20376;-78
2022/06/05 06:02:21;;;;;;;;;;;;;;;19.01;77.22;96074.06;5028905;28;19936;-78
2022/06/05 06:04:48;;;;;;;;;;;;;;;19.08;76.50;96069.75;5029173;28;19929;-78
2022/06/05 06:07:15;;;;;;;;;;;;;;;19.04;75.78;96076.03;5029303;28;19929;-80
2022/06/05 06:09:43;;;;;;;;;;;;;;;19.04;75.98;96062.22;5029666;28;19929;-78
2022/06/05 06:12:09;;;;;;;;;;;;;;;19.09;76.03;96061.09;5021133;28;20294;-78
2022/06/05 06:14:36;;;;;;;;;;;;;;;19.12;75.66;96049.31;5010374;28;20270;-78
2022/06/05 06:17:03;;;;;;;;;;;;;;;19.16;75.88;96055.66;5013582;28;19933;-77
2022/06/05 06:19:30;;;;;;;;;;;;;;;19.24;75.89;96064.78;5009268;28;19933;-78
2022/06/05 06:21:56;;;;;;;;;;;;;;;19.35;75.84;96060.16;5009156;28;19925;-78
2022/06/05 06:24:22;;;;;;;;;;;;;;;19.41;75.56;96064.13;5009204;28;19940;-78
2022/06/05 06:26:50;;;;;;;;;;;;;;;19.46;75.06;96058.25;5009625;28;19932;-78
2022/06/05 06:29:16;;;;;;;;;;;;;;;19.46;75.53;96041.69;5009090;28;19925;-77
2022/06/05 06:31:43;;;;;;;;;;;;;;;19.50;74.21;96050.78;5009250;28;19933;-78
2022/06/05 06:34:10;;;;;;;;;;;;;;;19.48;74.83;96041.31;5009163;28;20044;-78
2022/06/05 06:36:37;;;;;;;;;;;;;;;19.49;74.90;96042.91;5009569;28;19976;-78
2022/06/05 06:39:03;;;;;;;;;;;;;;;19.51;74.72;96035.81;5008893;28;19930;-77
2022/06/05 06:41:29;;;;;;;;;;;;;;;19.53;75.07;96029.94;5009617;28;19925;-78
2022/06/05 06:43:57;;;;;;;;;;;;;;;19.53;74.63;96036.22;5009840;28;19999;-78
2022/06/05 06:46:23;;;;;;;;;;;;;;;19.63;74.87;96042.22;5008807;28;19956;-78
2022/06/05 06:48:50;;;;;;;;;;;;;;;19.63;74.95;96031.19;5009461;28;19932;-77
2022/06/05 06:51:17;;;;;;;;;;;;;;;19.71;75.25;96032.81;5010705;28;20472;-78
2022/06/05 06:53:44;;;;;;;;;;;;;;;19.79;74.83;96040.00;5011670;28;20014;-78
2022/06/05 06:56:12;;;;;;;;;;;;;;;19.86;75.11;96051.06;5016878;28;19985;-78
2022/06/05 06:58:39;;;;;;;;;;;;;;;19.91;74.47;96050.72;5027413;28;20088;-78
2022/06/05 07:01:07;;;;;;;;;;;;;;;19.97;75.02;96040.88;5023615;28;20001;-78
2022/06/05 07:03:34;;;;;;;;;;;;;;;20.05;74.77;96053.56;5027573;28;20004;-78
2022/06/05 07:06:01;;;;;;;;;;;;;;;20.17;74.17;96054.41;5021024;28;20002;-77
2022/06/05 07:08:28;;;;;;;;;;;;;;;20.19;74.06;96063.88;5013641;28;19998;-78
2022/06/05 07:10:54;;;;;;;;;;;;;;;20.12;73.62;96063.06;5012598;28;20002;-78
2022/06/05 07:13:21;;;;;;;;;;;;;;;20.15;73.77;96056.75;5010548;28;20002;-78
2022/06/05 07:15:47;;;;;;;;;;;;;;;20.20;73.79;96056.38;5010429;28;20008;-77
2022/06/05 07:18:15;;;;;;;;;;;;;;;20.15;74.07;96059.50;5009362;28;20001;-77
2022/06/05 07:20:42;;;;;;;;;;;;;;;20.18;74.46;96061.50;5009623;28;19993;-78
2022/06/05 07:23:09;;;;;;;;;;;;;;;20.25;74.29;96058.78;5008502;28;19925;-77
2022/06/05 07:25:36;;;;;;;;;;;;;;;20.37;74.56;96069.50;5009416;28;19933;-77
2022/06/05 07:28:03;;;;;;;;;;;;;;;20.49;73.87;96063.66;5008849;28;20422;-77
2022/06/05 07:30:32;;;;;;;;;;;;;;;20.63;73.37;96065.69;5017736;28;19932;-80
2022/06/05 07:32:59;;;;;;;;;;;;;;;20.59;71.80;96064.88;5027310;28;20368;-81
2022/06/05 07:36:21;;;;;;;;;;;;;;;20.61;72.74;96058.94;5115250;27;19924;-80
2022/06/05 07:38:48;;;;;;;;;;;;;;;20.58;73.05;96064.09;5104788;28;19928;-78
2022/06/05 07:41:16;;;;;;;;;;;;;;;20.62;72.89;96063.28;5102564;28;19931;-80
2022/06/05 07:43:42;;;;;;;;;;;;;;;20.74;73.07;96066.50;5095289;28;67505;-80
2022/06/05 07:46:09;;;;;;;;;;;;;;;20.94;72.45;96063.41;5093378;28;19933;-81
2022/06/05 07:48:35;;;;;;;;;;;;;;;21.14;73.61;96066.59;5023126;28;19925;-78
2022/06/05 07:56:35;;;;;;;9.43;8.45;;;;;;;21.34;69.26;96225.69;5042980;28;20055;-78
2022/06/05 07:59:02;;;;;;;9.43;8.38;;;;;;;20.96;71.70;96222.38;5098700;28;20079;-78
2022/06/05 08:01:29;;;;;;;14.57;10.13;;;;;;;20.68;71.91;96197.31;5102616;28;20055;-75
2022/06/05 08:03:55;;;;;;;8.15;7.32;;;;;;;20.79;72.34;96187.91;5082487;28;20645;-79
2022/06/05 08:06:22;;;;;;;9.68;7.30;;;;;;;20.89;73.58;96199.41;5080912;28;20536;-78
2022/06/05 08:08:49;;;;;;;10.10;8.57;;;;;;;20.86;72.75;96228.63;5081971;28;20384;-77
2022/06/05 08:11:17;;;;;;;11.60;9.02;;;;;;;20.70;72.29;96239.22;5081747;28;20048;-77
2022/06/05 08:13:44;;;;;;;12.13;8.35;;;;;;;20.61;73.91;96227.69;5099393;28;20566;-78
2022/06/05 08:16:14;;;;;;;9.65;8.02;;;;;;;20.60;74.53;96221.38;5102183;28;20052;-77
2022/06/05 08:18:41;;;;;;;10.05;8.88;;;;;;;20.46;75.92;96237.84;5102429;28;20131;-76
2022/06/05 08:21:07;;;;;;;12.48;8.48;;;;;;;20.52;75.46;96237.16;5102254;28;20052;-77
2022/06/05 08:23:33;;;;;;;8.93;7.88;;;;;;;20.61;74.86;96239.56;5102900;28;20047;-77
2022/06/05 08:26:00;;;;;;;8.75;7.85;;;;;;;20.56;74.90;96232.41;5102762;28;20044;-76
2022/06/05 08:28:28;;;;;;;8.82;7.93;;;;;;;20.66;74.44;96230.09;5098062;28;20414;-77
2022/06/05 08:30:55;;;;;;;10.52;7.93;;;;;;;20.72;74.58;96223.81;5082244;28;20045;-77
2022/06/05 08:33:22;;;;;;;11.68;7.55;;;;;;;20.92;74.93;96223.53;5081512;28;20056;-77
2022/06/05 08:35:50;;;;;;;10.68;8.25;;;;;;;21.03;75.32;96224.34;5081937;28;20048;-77
2022/06/05 08:44:00;;;;;;;8.60;7.60;;;;;;;21.35;73.69;96232.81;5099483;28;20058;-78
2022/06/05 08:46:30;;;;;;;9.02;7.60;;;;;;;21.21;72.64;96228.00;5095228;28;20157;-77
2022/06/05 08:49:01;;;;;;;9.77;8.73;;;;;;;20.77;76.81;96236.50;5088034;28;20055;-77
2022/06/05 08:51:39;;;;;;;10.50;8.25;;;;;;;20.61;77.82;96249.84;5088224;28;20048;-77
2022/06/05 08:54:11;;;;;;;11.18;8.70;;;;;;;20.28;77.24;96254.31;5079612;28;20498;-78
2022/06/05 08:56:40;;;;;;;12.50;9.50;;;;;;;19.98;79.17;96246.19;5067885;28;20048;-77
2022/06/05 08:59:16;;;;;;;13.30;9.98;;;;;;;20.06;78.85;96234.00;5067650;28;20044;-76
2022/06/05 09:01:50;;;;;;;12.05;9.07;;;;;;;20.39;79.05;96232.28;5067909;28;20059;-76
2022/06/05 09:04:25;;;;;;;10.98;9.88;;;;;;;20.62;77.61;96232.06;5067452;28;20094;-79
2022/06/05 09:06:55;;;;;;;14.32;10.20;;;;;;;20.63;78.08;96234.44;5067983;28;20040;-75
2022/06/05 09:09:26;;;;;;;12.30;10.30;;;;;;;20.46;78.27;96233.13;5074706;28;20051;-77
2022/06/05 09:11:58;;;;;;;14.15;12.00;;;;;;;20.67;77.49;96220.63;5087476;28;20411;-76
2022/06/05 09:14:35;;;;;;;11.50;10.27;;;;;;;21.03;78.87;96200.22;5087457;28;20539;-77
2022/06/05 09:17:09;;;;;;;10.57;9.57;;;;;;;21.36;75.47;96192.88;5087458;28;20702;-80
2022/06/05 09:19:35;;;;;;;13.30;10.50;;;;;;;21.54;73.77;96190.91;5088058;28;20043;-77
2022/06/05 09:22:06;;;;;;;11.55;9.27;;;;;;;21.95;74.65;96187.78;5079297;28;20045;-79
2022/06/05 09:24:55;;;;;;;11.23;8.38;;;;;;;22.28;72.08;96194.13;5067910;28;20060;-78
2022/06/05 09:27:32;;;;;;;8.82;7.93;;;;;;;22.48;72.57;96184.19;5067052;28;20055;-78
2022/06/05 09:30:03;;;;;;;10.13;8.20;;;;;;;22.37;70.93;96173.13;5065119;28;20570;-75
2022/06/05 09:32:53;;;;;;;38.78;35.50;;;;;;;22.62;68.59;96173.06;5065406;28;20047;-78
2022/06/05 09:35:25;;;;;;;54.53;49.35;;;;;;;22.77;72.21;96168.28;5064721;28;20052;-78
2022/06/05 09:37:57;;;;;;;50.33;45.35;;;;;;;22.83;71.18;96190.84;5077085;28;20055;-79
2022/06/05 09:40:29;;;;;;;64.63;59.00;;;;;;;23.11;70.05;96201.88;5085713;28;20071;-80
2022/06/05 09:43:22;;;;;;;33.22;30.20;;;;;;;23.33;69.55;96204.53;5086157;28;20054;-77
2022/06/05 09:46:08;;;;;;;11.38;9.20;;;;;;;23.31;65.69;96204.16;5087265;28;20043;-77
2022/06/05 09:48:45;;;;;;;10.02;9.05;;;;;;;23.10;67.02;96194.72;5087122;28;20040;-79
2022/06/05 09:51:15;;;;;;;9.95;8.95;;;;;;;23.04;68.57;96193.56;5086607;28;20055;-79
2022/06/05 09:53:45;;;;;;;22.40;20.20;;;;;;;23.11;66.74;96187.97;5087463;28;20055;-80
2022/06/05 09:56:28;;;;;;;11.93;10.82;;;;;;;23.25;66.83;96189.13;5086744;28;20074;-77
2022/06/05 09:59:16;;;;;;;13.32;12.05;;;;;;;23.21;69.28;96188.34;5085720;28;20403;-77
2022/06/05 10:01:54;;;;;;;13.63;9.70;;;;;;;23.38;66.69;96198.56;5086880;28;20119;-78
2022/06/05 10:04:22;;;;;;;13.23;11.77;;;;;;;23.14;68.49;96195.50;5086431;28;20044;-77
2022/06/05 10:06:53;;;;;;;14.65;13.20;;;;;;;23.27;68.54;96204.16;5086766;28;20048;-78
2022/06/05 10:09:24;;;;;;;14.30;11.52;;;;;;;23.00;68.01;96195.56;5086431;28;20048;-79
2022/06/05 10:12:10;;;;;;;22.98;20.50;;;;;;;23.01;70.69;96201.91;5086307;28;20080;-77
2022/06/05 10:14:47;;;;;;;11.88;10.48;;;;;;;22.91;68.64;96206.31;5086433;28;20047;-78
2022/06/05 10:17:43;;;;;;;12.27;11.05;;;;;;;22.85;67.35;96210.66;5086078;28;20135;-77
2022/06/05 10:20:37;;;;;;;12.30;10.75;;;;;;;22.80;69.08;96214.63;5084499;28;20048;-78
2022/06/05 10:23:14;;;;;;;11.15;9.88;;;;;;;22.75;67.99;96209.50;5085963;28;20748;-80
2022/06/05 10:25:48;;;;;;;45.38;29.27;;;;;;;22.63;68.11;96210.72;5089587;28;20071;-82
2022/06/05 10:28:28;;;;;;;380.58;311.85;;;;;;;22.78;70.91;96205.94;5078043;28;20055;-82
2022/06/05 10:30:58;;;;;;;58.85;44.90;;;;;;;22.67;68.13;96194.88;5093331;28;20106;-78
2022/06/05 10:33:43;;;;;;;129.55;99.78;;;;;;;22.91;69.42;96184.88;5087508;28;20044;-79
2022/06/05 10:36:16;;;;;;;93.45;71.50;;;;;;;22.77;68.36;96182.16;5080450;28;20040;-80
2022/06/05 10:38:49;;;;;;;183.30;162.82;;;;;;;22.80;69.90;96172.22;5093186;28;20051;-81
2022/06/05 10:41:22;;;;;;;57.08;49.22;;;;;;;22.96;69.25;96171.78;5074761;28;20095;-79
2022/06/05 10:44:08;;;;;;;28.95;21.98;;;;;;;23.06;68.44;96174.50;5089565;28;20414;-78
2022/06/05 10:46:38;;;;;;;58.90;44.10;;;;;;;22.96;67.78;96161.47;5095187;28;20024;-78
2022/06/05 10:49:14;;;;;;;21.45;17.98;;;;;;;23.24;68.48;96154.22;5089746;28;20052;-75
2022/06/05 10:51:54;;;;;;;22.55;16.85;;;;;;;23.22;69.49;96153.81;5083594;28;20048;-76
2022/06/05 10:54:29;;;;;;;410.05;146.00;;;;;;;23.27;69.41;96154.16;5085361;28;20055;-77
2022/06/05 10:56:59;;;;;;;265.90;149.80;;;;;;;23.12;68.10;96156.22;5074344;28;20041;-78
2022/06/05 10:59:39;;;;;;;34.38;26.08;;;;;;;23.22;68.79;96145.47;5068915;28;20040;-77
2022/06/05 11:02:35;;;;;;;188.63;170.55;;;;;;;23.10;68.08;96144.75;5058129;28;20055;-77
2022/06/05 11:05:16;;;;;;;31.05;28.00;;;;;;;23.05;66.89;96139.59;5062623;28;20411;-78
2022/06/05 11:07:53;;;;;;;13.65;12.20;;;;;;;22.76;68.02;96132.56;5069746;28;20449;-77
2022/06/05 11:13:43;;;;;;;13.05;11.70;;;;;;;23.10;69.80;96122.53;5083182;28;20129;-78
2022/06/05 11:16:21;;;;;;;12.65;10.98;;;;;;;23.23;69.11;96119.28;5089435;28;20527;-78
2022/06/05 11:18:57;;;;;;;15.95;14.02;;;;;;;23.05;67.77;96114.63;5089745;28;20048;-79
2022/06/05 11:21:28;;;;;;;11.90;10.32;;;;;;;22.98;68.08;96106.34;5089270;28;20425;-78
2022/06/05 11:23:58;;;;;;;18.73;12.52;;;;;;;23.08;70.58;96096.38;5089948;28;20044;-78
2022/06/05 11:26:34;;;;;;;12.23;10.95;;;;;;;23.03;68.06;96105.91;5089703;28;20048;-78
2022/06/05 11:29:14;;;;;;;12.43;10.73;;;;;;;23.11;68.88;96095.53;5090041;28;20044;-78
2022/06/05 11:32:08;;;;;;;10.68;9.57;;;;;;;23.29;68.04;96084.31;5089848;28;20427;-78
2022/06/05 11:34:48;;;;;;;11.48;10.30;;;;;;;23.30;66.05;96083.13;5089786;28;20043;-78
2022/06/05 11:37:41;;;;;;;11.55;10.35;;;;;;;23.35;67.84;96069.59;5090478;28;20052;-81
2022/06/05 11:40:20;;;;;;;11.40;10.25;;;;;;;23.34;67.11;96073.56;5092486;28;20051;-80
2022/06/05 11:42:58;;;;;;;11.57;10.35;;;;;;;23.06;66.29;96066.19;5093393;28;20044;-79
2022/06/05 11:45:45;;;;;;;16.30;10.60;;;;;;;22.75;66.44;96067.16;5085337;28;20044;-79
2022/06/05 11:48:19;;;;;;;13.00;10.57;;;;;;;22.81;68.38;96063.56;5095186;28;20051;-81
2022/06/05 11:50:53;;;;;;;11.90;10.73;;;;;;;22.71;67.91;96055.25;5088222;28;20041;-81
2022/06/05 11:53:50;;;;;;;12.02;10.75;;;;;;;22.84;68.67;96043.31;5083684;28;20060;-81
2022/06/05 11:56:41;;;;;;;11.93;10.45;;;;;;;23.08;68.54;96033.28;5095891;28;20044;-79
2022/06/05 11:59:23;;;;;;;13.35;10.82;;;;;;;23.15;68.86;96029.66;5090405;28;20052;-85
2022/06/05 12:01:59;;;;;;;11.45;10.25;;;;;;;23.25;66.82;96028.00;5070501;28;20050;-82
2022/06/05 12:04:35;;;;;;;11.32;9.93;;;;;;;23.25;66.67;96039.09;5097336;28;20063;-79
2022/06/05 12:07:06;;;;;;;11.75;9.35;;;;;;;23.26;67.26;96029.56;5090829;28;20051;-79
2022/06/05 12:09:46;;;;;;;10.25;9.23;;;;;;;23.49;66.82;96031.75;5091599;28;20040;-79
2022/06/05 12:12:20;;;;;;;11.00;9.38;;;;;;;23.57;66.69;96034.06;5091015;28;20052;-78
2022/06/05 12:14:53;;;;;;;10.75;9.75;;;;;;;23.64;67.57;96022.91;5090790;28;20051;-78
2022/06/05 12:17:26;;;;;;;12.88;9.88;;;;;;;23.78;67.71;96026.78;5090364;28;20101;-79
2022/06/05 12:20:01;;;;;;;11.48;10.30;;;;;;;23.81;68.09;96025.97;5093761;28;20054;-80
2022/06/05 12:22:35;;;;;;;11.43;9.30;;;;;;;23.79;66.78;96018.00;5100558;28;20043;-82
2022/06/05 12:25:15;;;;;;;10.02;9.10;;;;;;;23.85;66.64;96026.69;5101418;28;20044;-80
2022/06/05 12:27:54;;;;;;;10.45;9.02;;;;;;;23.83;67.76;96018.78;5097350;28;20499;-79
2022/06/05 12:30:25;;;;;;;10.45;8.98;;;;;;;23.77;67.52;96020.41;5095006;28;20052;-79
2022/06/05 12:33:00;;;;;;;10.32;9.23;;;;;;;23.67;66.33;96021.31;5099341;28;20036;-82
2022/06/05 12:35:32;;;;;;;12.68;9.20;;;;;;;23.59;67.22;96020.53;5096710;28;20046;-80
2022/06/05 12:38:23;;;;;;;10.50;8.65;;;;;;;23.68;67.07;96023.69;5103155;28;20044;-82
2022/06/05 12:40:57;;;;;;;9.73;8.80;;;;;;;23.58;65.70;96018.97;5104357;28;20050;-80
2022/06/05 12:43:31;;;;;;;11.55;9.13;;;;;;;23.65;66.63;96018.97;5101799;28;20052;-82
2022/06/05 12:46:11;;;;;;;10.23;9.18;;;;;;;23.59;66.47;96009.44;5110679;28;20116;-84
2022/06/05 12:48:39;;;;;;;9.43;8.50;;;;;;;23.62;66.85;96013.38;5101906;28;20044;-81
2022/06/05 12:51:15;;;;;;;9.02;8.23;;;;;;;23.67;67.73;96016.53;5106660;28;20052;-82